Archival Weather

Norman Y Mineta San Jose Intl

San Jose, California (KSJC)

Report from: Saturday, September 30, 2023 7:53 PM PDT
Current time: Thursday, July 18, 2024 8:37 PM PDT

Current weather – Weather history – Daily summaries
Weather forecast

Temperature16.7°C (62.1°F)
Dew point10.6°C (51.1°F)
Winds 3 kts (1.5 m/s, 3.5 mph) West-Northwest (300°)
Visibility10 mi. (16.1 km)
Clouds Scattered clouds 3,000 ft. (914 m)
Altimeter29.80 in.Hg (1009 mB)
Relative humidity67 %
Density altitude521 ft. (159 m)
Sea-level pressure100.9 kPa (1009 mB, 29.80 in.Hg)
Remarks Automated weather observing station with precipitation discriminator
Pressure rising more quickly
Flight conditions Visual Meteorological Conditions
Raw dataKSJC 010253Z 30003KT 10SM SCT030 17/11 A2980 RMK AO2 SLP091 T01670106 53003
An error has occurred. This application may no longer respond until reloaded. Reload 🗙